Houghton, MI (49931)

6:49 AM EDT on September 02, 2015 (GMT -0400)
Shopko Heights | | Change Station
CLOSE
Current Station
Personal Weather Station
Location: Houghton, MI
Elevation: 910 ft
Nearby Weather Stations

Elev 910 ft 47.12 °N, 88.59 °W | Updated 13 seconds ago

Clear
Clear
62.7 °F
Feels Like 62.7 °F
N
1.6
Wind Variable Wind from SSE
Gusts 2.0 mph

Today
High -- | Low -- °F
--% Chance of Precip.
Yesterday
High -- | Low -- °F
Precip. -- in
7:14 AM 8:32 PM
Waning Gibbous, 81% visible
Pressure 29.95 in
Visibility 9.0 miles
Clouds Clear
Dew Point 61 °F
Humidity 95%
Rainfall 0.00 in
Snow Depth Not available.
UV 0 out of 12
Pollen 9.10 out of 12
Air Quality Not available.
Flu Activity Not available.
METAR KCMX 020953Z AUTO 01004KT 9SM CLR 14/13 A2995 RMK AO2 SLP140 T01390133 TSNO $
Pressure 29.95 in
Visibility 9.0 miles
Clouds Clear
Dew Point 61 °F
Humidity 95%
Rainfall 0.00 in
Snow Depth Not available.
UV 0 out of 12
Pollen 9.10 out of 12
Air Quality Not available.
Flu Activity Not available.
METAR KCMX 020953Z AUTO 01004KT 9SM CLR 14/13 A2995 RMK AO2 SLP140 T01390133 TSNO $

10-Day Weather Forecast

×

Almanac

Astronomy

Sep. 02, 2015 Rise Set
Actual Time
Civil Twilight
Nautical Twilight
Astronomical Twilight
Moon
Length of Visible Light
Length of Day
Tomorrow will be .
, % of the Moon is Illuminated

Today's Extremes

State Highs State Lows

Community

WunderPhotos

Upload Photos

1,851,734 photos uploaded!

WunderBlogs® & News

Nearby

Air Quality

  Air Quality AQ Index Pollutant
Not available.

Snow Depth

Station Depth Elevation

Earthquake Activity

City Distance Mag. Time & Date
Minimum magnitude displayed is 2.5.

Coastal Water Temperatures

Place Temperature

Stations

Nearby Weather Stations

Station Location Temp. Windchill Dew Point Humidity Wind Precip. Elev Updated Type